Pagina principală
METAR-TAF:

METAR-TAF

Aeroporturi :

Honiara, Guadalcanal, Insulele Solomon

Latitudine: 09-25S, longitudine: 160-03E, elevație: 8 m

Observații meteo curente

Raportul a fost făcut în urmă cu 7 ore și 11 de minute, la 09:00 UTC
Temperatură
Presiune

METAR: AGGH 120900Z METAR

Ora: 03:11 (16:11 UTC)

Prognoză

Raportul a fost făcut în urmă cu 5 ore și 1 de minute, la 11:10 UTC
Prognoză valabilă de la 12 ora 12 UTC la 13 ora 12 UTC
Vânt 5 kt de la Sud
Vizibilitate: 1011 m
Nori puțini la o înălțime de 1600 picior

TAF: AGGH 121110Z 1212/1312 18005KT 9999 FEW016 T 26 25 24 26 Q 1012 1010 1009 1011 TAF3

Observații și prognoze meteo pentru peste 4.000 de aeroporturi (rapoarte METAR și TAF).

Stațiile disponibile sunt reprezentate pe hartă prin puncte galbene și roșii.

Țineți indicatorul mouse-ului pe punctul dorit pentru a vedea denumirea stației.

Apoi, faceți clic pentru a vedea observațiile și prognozele meteorologice.

Pentru a schimba harta: Pentru mărire, faceți clic pe butoanele verzi cu cruce neagră; pentru micșorare, pe butonul verde cu o liniuță; pentru hărți învecinate, pe săgețile verzi.


METAR-TAF: